createdAt,value
2023-05-15T00:01:32.465Z,98537.16
2023-05-15T00:03:59.389Z,98536.41
2023-05-15T00:06:27.990Z,98541.53
2023-05-15T00:08:54.764Z,98541.72
2023-05-15T00:11:23.494Z,98542.25
2023-05-15T00:13:51.268Z,98537.25
2023-05-15T00:16:18.205Z,98484.00
2023-05-15T00:18:45.127Z,98537.75
2023-05-15T00:21:12.045Z,98536.16
2023-05-15T00:23:38.851Z,98537.97
2023-05-15T00:26:05.810Z,98533.56
2023-05-15T00:28:32.650Z,98528.56
2023-05-15T00:30:59.534Z,98522.09
2023-05-15T00:33:26.302Z,98532.94
2023-05-15T00:35:53.093Z,98526.91
2023-05-15T00:38:19.869Z,98523.69
2023-05-15T00:40:47.059Z,98515.47
2023-05-15T00:43:15.181Z,98520.34
2023-05-15T00:45:43.510Z,98527.50
2023-05-15T00:48:10.604Z,98522.53
2023-05-15T00:50:38.517Z,98528.47
2023-05-15T00:53:06.171Z,98524.38
2023-05-15T00:55:34.166Z,98527.28
2023-05-15T00:58:02.279Z,98524.97
2023-05-15T01:00:31.474Z,98524.59
2023-05-15T01:02:58.426Z,98526.25
2023-05-15T01:05:25.942Z,98524.59
2023-05-15T01:08:17.108Z,98522.72
2023-05-15T01:10:45.730Z,98525.31
2023-05-15T01:13:15.262Z,98530.69
2023-05-15T01:15:42.927Z,98530.53
2023-05-15T01:18:09.786Z,98538.31
2023-05-15T01:21:16.464Z,98524.38
2023-05-15T01:24:19.608Z,98528.09
2023-05-15T01:27:10.359Z,98519.50
2023-05-15T01:33:51.290Z,98512.03
2023-05-15T01:36:33.337Z,98515.34
2023-05-15T01:39:03.348Z,98519.81
2023-05-15T01:41:42.953Z,98523.91
2023-05-15T01:44:22.751Z,98530.56
2023-05-15T01:46:59.658Z,98525.47
2023-05-15T01:49:32.068Z,98525.38
2023-05-15T01:52:35.777Z,98523.69
2023-05-15T01:55:04.779Z,98521.09
2023-05-15T01:57:32.238Z,98524.53
2023-05-15T02:00:00.617Z,98522.97
2023-05-15T02:02:29.541Z,98527.25
2023-05-15T02:04:57.392Z,98519.22
2023-05-15T02:07:25.016Z,98523.31
2023-05-15T02:09:52.858Z,98525.16
2023-05-15T02:12:21.062Z,98522.47
2023-05-15T02:14:50.451Z,98520.81
2023-05-15T02:17:17.844Z,98516.53
2023-05-15T02:19:44.693Z,98520.72
2023-05-15T02:22:11.475Z,98519.13
2023-05-15T02:24:38.247Z,98522.56
2023-05-15T02:27:21.077Z,98520.19
2023-05-15T02:30:14.975Z,98526.00
2023-05-15T02:32:54.831Z,98526.19
2023-05-15T02:35:42.647Z,98525.91
2023-05-15T02:38:16.939Z,98526.13
2023-05-15T02:40:46.077Z,98525.59
2023-05-15T02:43:14.118Z,98526.19
2023-05-15T02:45:42.057Z,98533.91
2023-05-15T02:48:09.628Z,98522.47
2023-05-15T02:50:36.458Z,98520.06
2023-05-15T02:53:05.406Z,98518.81
2023-05-15T02:55:32.281Z,98518.69
2023-05-15T02:57:59.396Z,98517.59
2023-05-15T03:00:26.251Z,98510.78
2023-05-15T03:02:53.328Z,98522.13
2023-05-15T03:05:20.851Z,98523.91
2023-05-15T03:07:47.609Z,98525.59
2023-05-15T03:10:14.516Z,98523.53
2023-05-15T03:12:41.302Z,98518.50
2023-05-15T03:15:08.470Z,98522.88
2023-05-15T03:17:35.533Z,98522.13
2023-05-15T03:20:02.607Z,98522.25
2023-05-15T03:22:29.378Z,98514.25
2023-05-15T03:24:56.131Z,98509.41
2023-05-15T03:27:23.073Z,98506.53
2023-05-15T03:29:50.924Z,98511.63
2023-05-15T03:32:18.048Z,98500.56
2023-05-15T03:34:44.922Z,98522.41
2023-05-15T03:37:11.718Z,98516.31
2023-05-15T03:39:38.520Z,98519.09
2023-05-15T03:42:05.589Z,98519.09
2023-05-15T03:44:33.124Z,98522.41
2023-05-15T03:46:59.945Z,98519.91
2023-05-15T03:49:26.779Z,98526.25
2023-05-15T03:51:53.585Z,98515.34
2023-05-15T03:54:20.515Z,98527.63
2023-05-15T03:56:47.321Z,98527.53
2023-05-15T03:59:14.135Z,98518.25
2023-05-15T04:01:51.258Z,98526.59
2023-05-15T04:04:22.480Z,98524.09
2023-05-15T04:06:50.509Z,98516.78
2023-05-15T04:09:17.575Z,98500.41
2023-05-15T04:11:46.626Z,98522.94
2023-05-15T04:14:13.923Z,98525.53
2023-05-15T04:16:40.754Z,98509.22
2023-05-15T04:19:07.792Z,98521.66
2023-05-15T04:21:34.550Z,98516.75
2023-05-15T04:24:01.308Z,98518.59
2023-05-15T04:26:28.286Z,98519.88
2023-05-15T04:31:29.975Z,98521.66
2023-05-15T04:33:56.859Z,98527.59
2023-05-15T04:36:23.660Z,98522.38
2023-05-15T04:38:50.510Z,98510.81
2023-05-15T04:41:17.820Z,98530.72
2023-05-15T04:43:44.615Z,98521.97
2023-05-15T04:46:11.486Z,98524.69
2023-05-15T04:48:38.520Z,98529.69
2023-05-15T04:51:05.400Z,98535.50
2023-05-15T04:53:32.243Z,98536.34
2023-05-15T04:55:59.031Z,98544.06
2023-05-15T04:58:25.967Z,98543.84
2023-05-15T05:00:52.971Z,98543.03
2023-05-15T05:03:19.935Z,98544.91
2023-05-15T05:05:46.754Z,98543.03
2023-05-15T05:08:13.761Z,98551.47
2023-05-15T05:10:40.606Z,98554.72
2023-05-15T05:13:07.512Z,98533.56
2023-05-15T05:15:34.390Z,98552.94
2023-05-15T05:18:01.370Z,98554.50
2023-05-15T05:20:28.251Z,98555.34
2023-05-15T05:22:55.086Z,98553.56
2023-05-15T05:25:22.037Z,98549.22
2023-05-15T05:27:48.963Z,98557.09
2023-05-15T05:30:15.940Z,98553.56
2023-05-15T05:32:42.918Z,98542.53
2023-05-15T05:35:10.923Z,98555.78
2023-05-15T05:37:39.604Z,98550.59
2023-05-15T05:40:10.280Z,98550.38
2023-05-15T05:42:37.788Z,98547.03
2023-05-15T05:45:06.696Z,98554.34
2023-05-15T05:47:34.553Z,98552.56
2023-05-15T05:50:01.609Z,98548.22
2023-05-15T05:52:29.384Z,98532.28
2023-05-15T05:54:56.314Z,98540.19
2023-05-15T05:57:23.156Z,98548.63
2023-05-15T05:59:50.060Z,98532.50
2023-05-15T06:02:18.015Z,98545.88
2023-05-15T06:04:46.469Z,98537.63
2023-05-15T06:07:14.597Z,98547.41
2023-05-15T06:09:41.663Z,98537.97
2023-05-15T06:12:09.176Z,98538.88
2023-05-15T06:14:36.153Z,98549.53
2023-05-15T06:17:03.421Z,98547.72
2023-05-15T06:19:30.479Z,98541.72
2023-05-15T06:21:57.750Z,98561.47
2023-05-15T06:24:25.812Z,98546.72
2023-05-15T06:26:53.276Z,98543.59
2023-05-15T06:29:21.336Z,98550.88
2023-05-15T06:31:49.439Z,98551.59
2023-05-15T06:34:16.468Z,98536.41
2023-05-15T06:36:43.318Z,98550.38
2023-05-15T06:39:13.333Z,98553.81
2023-05-15T06:41:40.152Z,98549.41
2023-05-15T06:44:07.039Z,98552.75
2023-05-15T06:46:33.940Z,98561.31
2023-05-15T06:49:00.914Z,98554.44
2023-05-15T06:51:27.799Z,98552.66
2023-05-15T06:53:54.694Z,98557.78
2023-05-15T06:56:21.976Z,98555.06
2023-05-15T06:58:48.843Z,98540.50
2023-05-15T07:01:15.801Z,98550.50
2023-05-15T07:03:43.062Z,98548.22
2023-05-15T07:06:09.967Z,98537.16
2023-05-15T07:08:36.826Z,98555.94
2023-05-15T07:11:04.342Z,98551.84
2023-05-15T07:13:31.478Z,98548.53
2023-05-15T07:15:58.529Z,98547.50
2023-05-15T07:18:25.432Z,98544.03
2023-05-15T07:20:52.338Z,98543.84
2023-05-15T07:23:19.223Z,98538.63
2023-05-15T07:25:47.509Z,98526.84
2023-05-15T07:28:14.423Z,98544.28
2023-05-15T07:30:41.960Z,98544.00
2023-05-15T07:33:08.908Z,98528.31
2023-05-15T07:35:35.715Z,98540.53
2023-05-15T07:38:02.629Z,98541.28
2023-05-15T07:40:30.176Z,98535.34
2023-05-15T07:42:57.068Z,98527.19
2023-05-15T07:45:24.239Z,98538.41
2023-05-15T07:47:51.602Z,98534.44
2023-05-15T07:50:18.788Z,98535.72
2023-05-15T07:52:47.117Z,98529.56
2023-05-15T07:55:14.097Z,98525.31
2023-05-15T07:57:40.962Z,98527.75
2023-05-15T08:00:13.373Z,98528.34
2023-05-15T08:02:40.804Z,98528.34
2023-05-15T08:05:08.359Z,98525.28
2023-05-15T08:07:35.226Z,98509.09
2023-05-15T08:10:04.180Z,98526.16
2023-05-15T08:12:31.013Z,98519.19
2023-05-15T08:14:57.851Z,98524.00
2023-05-15T08:17:25.938Z,98524.88
2023-05-15T08:19:53.415Z,98518.69
2023-05-15T08:22:20.273Z,98520.94
2023-05-15T08:24:47.159Z,98509.72
2023-05-15T08:27:14.023Z,98516.94
2023-05-15T08:29:41.020Z,98518.63
2023-05-15T08:32:10.040Z,98506.28
2023-05-15T08:34:37.024Z,98508.22
2023-05-15T08:37:06.830Z,98506.03
2023-05-15T08:39:33.801Z,98510.47
2023-05-15T08:42:09.282Z,98516.22
2023-05-15T08:44:36.900Z,98493.09
2023-05-15T08:47:06.112Z,98508.38
2023-05-15T08:49:56.944Z,98510.03
2023-05-15T08:52:25.741Z,98501.44
2023-05-15T08:54:53.639Z,98492.50
2023-05-15T08:57:21.061Z,98494.34
2023-05-15T08:59:49.685Z,98499.91
2023-05-15T09:02:17.218Z,98477.47
2023-05-15T09:04:44.724Z,98495.06
2023-05-15T09:07:12.670Z,98489.03
2023-05-15T09:09:40.052Z,98493.06
2023-05-15T09:12:15.098Z,98476.31
2023-05-15T09:14:44.653Z,98487.53
2023-05-15T09:17:13.144Z,98480.19
2023-05-15T09:19:40.461Z,98478.38
2023-05-15T09:22:25.705Z,98475.09
2023-05-15T09:24:53.274Z,98482.09
2023-05-15T09:27:20.927Z,98470.63
2023-05-15T09:29:48.918Z,98480.22
2023-05-15T09:32:18.259Z,98479.25
2023-05-15T09:34:46.050Z,98474.50
2023-05-15T09:37:31.762Z,98457.66
2023-05-15T09:40:10.017Z,98468.50
2023-05-15T09:42:37.566Z,98460.53
2023-05-15T09:45:05.321Z,98468.59
2023-05-15T09:47:32.640Z,98467.53
2023-05-15T09:49:59.761Z,98447.94
2023-05-15T09:52:29.073Z,98454.13
2023-05-15T09:54:57.279Z,98461.34
2023-05-15T09:57:24.789Z,98459.69
2023-05-15T09:59:51.667Z,98456.72
2023-05-15T10:02:34.913Z,98455.41
2023-05-15T10:05:02.321Z,98455.16
2023-05-15T10:07:35.073Z,98450.56
2023-05-15T10:10:04.261Z,98456.25
2023-05-15T10:12:32.259Z,98449.25
2023-05-15T10:15:01.607Z,98445.34
2023-05-15T10:17:31.929Z,98450.78
2023-05-15T10:20:00.861Z,98442.94
2023-05-15T10:22:30.954Z,98449.09
2023-05-15T10:25:05.580Z,98449.56
2023-05-15T10:27:36.000Z,98448.03
2023-05-15T10:30:04.178Z,98425.56
2023-05-15T10:32:31.727Z,98428.91
2023-05-15T10:34:58.828Z,98428.66
2023-05-15T10:37:27.620Z,98416.53
2023-05-15T10:39:58.462Z,98424.59
2023-05-15T10:42:27.731Z,98419.38
2023-05-15T10:45:00.091Z,98416.16
2023-05-15T10:47:28.277Z,98407.91
2023-05-15T10:49:55.354Z,98409.34
2023-05-15T10:52:22.644Z,98401.94
2023-05-15T10:54:49.569Z,98417.56
2023-05-15T10:57:18.262Z,98401.34
2023-05-15T10:59:45.198Z,98389.91
2023-05-15T11:02:26.397Z,98411.25
2023-05-15T11:05:02.051Z,98397.78
2023-05-15T11:07:29.339Z,98397.78
2023-05-15T11:09:57.148Z,98375.16
2023-05-15T11:12:25.659Z,98389.56
2023-05-15T11:14:56.284Z,98393.59
2023-05-15T11:17:26.621Z,98390.84
2023-05-15T11:19:53.357Z,98387.50
2023-05-15T11:22:36.139Z,98384.31
2023-05-15T11:25:14.389Z,98375.00
2023-05-15T11:27:46.365Z,98364.00
2023-05-15T11:30:22.239Z,98365.94
2023-05-15T11:33:02.005Z,98369.13
2023-05-15T11:35:40.045Z,98360.00
2023-05-15T11:38:09.828Z,98356.22
2023-05-15T11:40:52.594Z,98361.69
2023-05-15T11:43:24.803Z,98348.00
2023-05-15T11:45:58.625Z,98347.09
2023-05-15T11:48:32.910Z,98345.69
2023-05-15T11:51:02.104Z,98346.59
2023-05-15T11:53:33.145Z,98345.97
2023-05-15T11:56:00.124Z,98347.47
2023-05-15T11:58:27.455Z,98345.31
2023-05-15T12:00:54.894Z,98356.06
2023-05-15T12:03:36.124Z,98352.00
2023-05-15T12:06:05.364Z,98353.38
2023-05-15T12:08:37.685Z,98343.22
2023-05-15T12:11:06.416Z,98349.00
2023-05-15T12:13:34.344Z,98346.28
2023-05-15T12:16:03.496Z,98349.44
2023-05-15T12:18:33.977Z,98340.84
2023-05-15T12:21:01.170Z,98337.56
2023-05-15T12:23:29.851Z,98330.66
2023-05-15T12:26:01.375Z,98341.84
2023-05-15T12:28:30.252Z,98342.16
2023-05-15T12:30:57.993Z,98322.97
2023-05-15T12:33:25.369Z,98342.81
2023-05-15T12:36:00.270Z,98353.72
2023-05-15T12:38:28.042Z,98353.69
2023-05-15T12:40:55.242Z,98359.66
2023-05-15T12:43:25.360Z,98353.13
2023-05-15T12:45:56.443Z,98360.88
2023-05-15T12:48:28.807Z,98358.09
2023-05-15T12:50:55.625Z,98355.63
2023-05-15T12:53:22.509Z,98330.50
2023-05-15T12:55:50.929Z,98340.59
2023-05-15T12:58:19.055Z,98355.50
2023-05-15T13:00:50.224Z,98350.38
2023-05-15T13:03:23.475Z,98353.72
2023-05-15T13:05:52.176Z,98361.72
2023-05-15T13:08:19.726Z,98369.59
2023-05-15T13:10:47.796Z,98371.53
2023-05-15T13:13:15.458Z,98367.09
2023-05-15T13:15:47.988Z,98347.06
2023-05-15T13:18:17.932Z,98368.47
2023-05-15T13:20:46.409Z,98356.03
2023-05-15T13:23:20.451Z,98358.41
2023-05-15T13:25:47.685Z,98338.66
2023-05-15T13:28:14.464Z,98356.88
2023-05-15T13:30:42.243Z,98348.84
2023-05-15T13:33:13.183Z,98346.63
2023-05-15T13:35:42.900Z,98338.72
2023-05-15T13:38:11.752Z,98340.94
2023-05-15T13:40:39.558Z,98343.59
2023-05-15T13:43:06.617Z,98336.41
2023-05-15T13:45:33.841Z,98323.16
2023-05-15T13:48:00.848Z,98333.69
2023-05-15T13:50:27.816Z,98333.53
2023-05-15T13:52:54.738Z,98316.97
2023-05-15T13:55:23.187Z,98314.78
2023-05-15T13:57:51.216Z,98331.91
2023-05-15T14:00:18.704Z,98317.81
2023-05-15T14:02:45.888Z,98320.44
2023-05-15T14:05:14.627Z,98321.13
2023-05-15T14:07:42.010Z,98320.59
2023-05-15T14:10:10.350Z,98320.03
2023-05-15T14:12:38.123Z,98326.25
2023-05-15T14:15:05.816Z,98319.19
2023-05-15T14:17:32.721Z,98312.00
2023-05-15T14:19:59.585Z,98310.22
2023-05-15T14:22:26.447Z,98314.22
2023-05-15T14:24:53.581Z,98328.84
2023-05-15T14:27:20.755Z,98335.50
2023-05-15T14:29:48.935Z,98339.50
2023-05-15T14:32:16.424Z,98342.94
2023-05-15T14:34:43.654Z,98341.28
2023-05-15T14:37:10.595Z,98333.53
2023-05-15T14:39:37.561Z,98339.47
2023-05-15T14:42:04.737Z,98343.34
2023-05-15T14:44:31.618Z,98344.03
2023-05-15T14:47:12.629Z,98343.34
2023-05-15T14:49:40.178Z,98329.41
2023-05-15T14:52:09.341Z,98349.00
2023-05-15T14:54:36.904Z,98331.34
2023-05-15T14:57:04.031Z,98342.25
2023-05-15T14:59:30.972Z,98359.34
2023-05-15T15:01:58.008Z,98356.72
2023-05-15T15:04:26.611Z,98357.44
2023-05-15T15:06:56.791Z,98327.03
2023-05-15T15:09:25.232Z,98358.09
2023-05-15T15:11:52.647Z,98347.91
2023-05-15T15:14:19.481Z,98363.78
2023-05-15T15:16:46.525Z,98357.31
2023-05-15T15:19:16.166Z,98367.38
2023-05-15T15:21:44.974Z,98355.91
2023-05-15T15:24:11.926Z,98361.44
2023-05-15T15:26:38.739Z,98364.59
2023-05-15T15:29:05.708Z,98354.69
2023-05-15T15:31:32.530Z,98372.47
2023-05-15T15:33:59.585Z,98394.28
2023-05-15T15:36:26.633Z,98396.50
2023-05-15T15:38:53.541Z,98398.44
2023-05-15T15:41:23.496Z,98402.84
2023-05-15T15:43:50.560Z,98405.19
2023-05-15T15:46:17.436Z,98403.56
2023-05-15T15:48:44.582Z,98403.81
2023-05-15T15:51:11.426Z,98409.31
2023-05-15T15:53:38.763Z,98407.78
2023-05-15T15:56:07.152Z,98411.94
2023-05-15T15:58:33.974Z,98406.81
2023-05-15T16:01:01.198Z,98408.59
2023-05-15T16:03:28.279Z,98417.84
2023-05-15T16:05:55.196Z,98416.34
2023-05-15T16:08:22.156Z,98409.59
2023-05-15T16:10:49.031Z,98418.72
2023-05-15T16:13:15.987Z,98420.66
2023-05-15T16:15:42.913Z,98417.72
2023-05-15T16:18:09.695Z,98420.03
2023-05-15T16:20:36.549Z,98420.31
2023-05-15T16:23:03.296Z,98418.66
2023-05-15T16:25:30.116Z,98418.91
2023-05-15T16:27:57.017Z,98413.91
2023-05-15T16:30:33.415Z,98423.53
2023-05-15T16:33:11.038Z,98416.88
2023-05-15T16:35:37.934Z,98407.94
2023-05-15T16:38:05.436Z,98417.69
2023-05-15T16:40:32.215Z,98408.81
2023-05-15T16:42:59.077Z,98412.78
2023-05-15T16:45:26.119Z,98420.69
2023-05-15T16:47:53.055Z,98407.69
2023-05-15T16:50:20.063Z,98427.44
2023-05-15T16:52:48.081Z,98434.13
2023-05-15T16:55:18.343Z,98434.00
2023-05-15T16:57:46.276Z,98441.44
2023-05-15T17:00:14.657Z,98439.09
2023-05-15T17:02:42.581Z,98435.91
2023-05-15T17:05:11.200Z,98432.94
2023-05-15T17:07:38.665Z,98450.69
2023-05-15T17:10:10.415Z,98443.44
2023-05-15T17:12:37.775Z,98451.53
2023-05-15T17:15:05.608Z,98458.19
2023-05-15T17:17:32.700Z,98461.56
2023-05-15T17:20:01.862Z,98459.56
2023-05-15T17:22:29.472Z,98458.50
2023-05-15T17:24:56.390Z,98453.16
2023-05-15T17:27:23.331Z,98462.47
2023-05-15T17:29:50.503Z,98453.16
2023-05-15T17:32:18.329Z,98457.56
2023-05-15T17:34:46.340Z,98460.41
2023-05-15T17:37:13.528Z,98466.16
2023-05-15T17:39:40.503Z,98468.06
2023-05-15T17:42:07.461Z,98470.19
2023-05-15T17:44:34.455Z,98473.16
2023-05-15T17:47:01.329Z,98466.16
2023-05-15T17:49:28.441Z,98460.47
2023-05-15T17:51:55.383Z,98475.91
2023-05-15T17:54:22.212Z,98469.03
2023-05-15T17:56:49.098Z,98472.81
2023-05-15T17:59:16.289Z,98480.22
2023-05-15T18:01:43.274Z,98475.09
2023-05-15T18:04:10.400Z,98474.31
2023-05-15T18:06:37.370Z,98489.22
2023-05-15T18:09:05.020Z,98490.91
2023-05-15T18:11:32.344Z,98494.47
2023-05-15T18:13:59.418Z,98488.09
2023-05-15T18:16:26.521Z,98503.53
2023-05-15T18:18:53.813Z,98502.44
2023-05-15T18:21:20.787Z,98506.34
2023-05-15T18:23:47.595Z,98514.19
2023-05-15T18:26:14.460Z,98516.34
2023-05-15T18:28:41.355Z,98523.72
2023-05-15T18:31:08.326Z,98521.72
2023-05-15T18:33:35.240Z,98525.38
2023-05-15T18:36:02.138Z,98514.94
2023-05-15T18:38:29.105Z,98527.41
2023-05-15T18:40:55.972Z,98534.31
2023-05-15T18:43:22.793Z,98521.81
2023-05-15T18:45:49.677Z,98531.81
2023-05-15T18:48:16.574Z,98518.72
2023-05-15T18:50:43.783Z,98537.97
2023-05-15T18:53:10.650Z,98546.66
2023-05-15T18:55:38.893Z,98545.56
2023-05-15T18:58:06.190Z,98536.88
2023-05-15T19:00:39.042Z,98550.56
2023-05-15T19:03:08.355Z,98559.13
2023-05-15T19:05:35.648Z,98562.44
2023-05-15T19:08:03.056Z,98563.19
2023-05-15T19:10:30.644Z,98569.69
2023-05-15T19:12:58.325Z,98564.78
2023-05-15T19:15:25.638Z,98565.31
2023-05-15T19:17:52.833Z,98570.75
2023-05-15T19:20:20.712Z,98565.53
2023-05-15T19:22:47.611Z,98576.69
2023-05-15T19:25:14.538Z,98570.72
2023-05-15T19:27:41.421Z,98561.19
2023-05-15T19:30:09.964Z,98575.94
2023-05-15T19:32:37.368Z,98595.88
2023-05-15T19:35:05.266Z,98581.41
2023-05-15T19:37:32.123Z,98589.25
2023-05-15T19:39:58.935Z,98600.84
2023-05-15T19:42:26.115Z,98600.81
2023-05-15T19:44:52.932Z,98604.00
2023-05-15T19:47:19.738Z,98611.47
2023-05-15T19:49:46.686Z,98604.09
2023-05-15T19:52:13.491Z,98615.97
2023-05-15T19:54:40.413Z,98599.09
2023-05-15T19:57:07.433Z,98614.53
2023-05-15T19:59:34.250Z,98613.78
2023-05-15T20:02:02.571Z,98611.66
2023-05-15T20:04:29.500Z,98593.44
2023-05-15T20:06:56.368Z,98601.66
2023-05-15T20:09:23.146Z,98611.16
2023-05-15T20:11:50.269Z,98607.34
2023-05-15T20:14:17.096Z,98605.72
2023-05-15T20:16:43.932Z,98584.06
2023-05-15T20:19:11.145Z,98599.66
2023-05-15T20:21:38.455Z,98606.66
2023-05-15T20:24:05.944Z,98603.94
2023-05-15T20:26:32.868Z,98613.03
2023-05-15T20:28:59.633Z,98608.06
2023-05-15T20:31:26.423Z,98613.28
2023-05-15T20:33:53.367Z,98606.72
2023-05-15T20:36:25.081Z,98605.56
2023-05-15T20:38:52.755Z,98589.97
2023-05-15T20:41:21.491Z,98609.22
2023-05-15T20:43:49.679Z,98609.44
2023-05-15T20:46:16.919Z,98616.66
2023-05-15T20:48:43.881Z,98616.78
2023-05-15T20:51:10.668Z,98613.66
2023-05-15T20:53:37.474Z,98607.84
2023-05-15T20:56:04.261Z,98612.34
2023-05-15T20:58:31.151Z,98609.44
2023-05-15T21:01:00.827Z,98612.38
2023-05-15T21:03:28.704Z,98614.97
2023-05-15T21:05:56.960Z,98610.19
2023-05-15T21:08:24.384Z,98592.69
2023-05-15T21:10:53.008Z,98606.44
2023-05-15T21:13:19.872Z,98609.19
2023-05-15T21:15:46.927Z,98611.44
2023-05-15T21:18:13.818Z,98604.69
2023-05-15T21:20:41.677Z,98614.81
2023-05-15T21:23:08.499Z,98608.81
2023-05-15T21:25:35.278Z,98614.88
2023-05-15T21:28:02.655Z,98616.13
2023-05-15T21:30:29.525Z,98610.06
2023-05-15T21:32:56.514Z,98607.47
2023-05-15T21:35:25.038Z,98608.41
2023-05-15T21:37:51.809Z,98609.25
2023-05-15T21:40:18.769Z,98585.72
2023-05-15T21:42:45.898Z,98601.22
2023-05-15T21:45:12.746Z,98606.31
2023-05-15T21:47:39.593Z,98608.00
2023-05-15T21:50:07.577Z,98598.94
2023-05-15T21:52:34.401Z,98606.44
2023-05-15T21:55:01.178Z,98594.16
2023-05-15T21:57:28.585Z,98611.13
2023-05-15T21:59:55.355Z,98617.19
2023-05-15T22:02:22.485Z,98618.63
2023-05-15T22:04:49.355Z,98603.44
2023-05-15T22:07:16.436Z,98614.03
2023-05-15T22:09:44.893Z,98618.63
2023-05-15T22:12:11.810Z,98609.16
2023-05-15T22:14:46.966Z,98614.38
2023-05-15T22:17:26.243Z,98622.81
2023-05-15T22:19:53.517Z,98611.66
2023-05-15T22:22:20.811Z,98616.47
2023-05-15T22:24:47.897Z,98626.38
2023-05-15T22:27:16.745Z,98620.53
2023-05-15T22:29:43.619Z,98611.97
2023-05-15T22:32:10.457Z,98626.78
2023-05-15T22:34:37.286Z,98626.78
2023-05-15T22:37:04.223Z,98631.78
2023-05-15T22:39:31.128Z,98627.00
2023-05-15T22:41:57.896Z,98641.59
2023-05-15T22:44:24.776Z,98635.25
2023-05-15T22:46:51.693Z,98634.59
2023-05-15T22:49:25.298Z,98634.06
2023-05-15T22:51:56.629Z,98627.28
2023-05-15T22:54:23.833Z,98621.13
2023-05-15T22:56:54.213Z,98620.28
2023-05-15T22:59:21.526Z,98629.69
2023-05-15T23:01:49.347Z,98615.31
2023-05-15T23:04:17.472Z,98626.75
2023-05-15T23:06:44.603Z,98599.78
2023-05-15T23:09:11.695Z,98626.88
2023-05-15T23:11:38.751Z,98615.72
2023-05-15T23:14:05.725Z,98615.53
2023-05-15T23:16:32.501Z,98604.88
2023-05-15T23:18:59.668Z,98617.19
2023-05-15T23:21:26.942Z,98607.91
2023-05-15T23:23:53.914Z,98611.25
2023-05-15T23:26:20.857Z,98610.84
2023-05-15T23:28:47.649Z,98612.41
2023-05-15T23:31:14.714Z,98612.81
2023-05-15T23:33:41.739Z,98611.22
2023-05-15T23:36:08.773Z,98606.94
2023-05-15T23:38:35.580Z,98618.00
2023-05-15T23:41:02.480Z,98618.75
2023-05-15T23:43:29.628Z,98620.63
2023-05-15T23:45:56.445Z,98614.84
2023-05-15T23:48:23.301Z,98619.22
2023-05-15T23:50:51.472Z,98616.19
2023-05-15T23:53:18.320Z,98623.38
2023-05-15T23:55:45.134Z,98621.28
2023-05-15T23:58:12.001Z,98627.75
